CES551 ZSPD-EGLL
Flight info
| Callsign | CES551 |
|---|---|
| Flight time | N/A |
| Altitude | 30100 |
| Route | PIK95D PIKAS G330 PIMOL A593 OMUDI/K0920S0980 A593 DALIM W157 BEKDO/K0915S0950 W157 VYK G212 SOTMU/K0909S0980 B339 POLHO Y520 SERNA/K0909F320 R497 UPLIV/K0911F340 R497 TODES B228 HMN L870 DIKEP/K0900F360 L870 RANVA/N0484F360 L870 RESMO DCT ETPIG DCT GORAX DCT ALASA DCT IZZEX N872 PAM L980 LOGAN |
| Aircraft | B77W/H-SDE1E2E3FGHIJ2J3J4J5M1RWXY/LB1D1 |
Departure
| Time | 2026-05-04 04:20 |
|---|---|
| Airport | Shanghai Pudong International Airport (ZSPD) |
Arrival
| Time | N/A |
|---|---|
| Airport | London Heathrow Airport (EGLL) |
| Time | Latitude | Longitude | Altitude | Speed | Heading |
|---|---|---|---|---|---|
| 2026-05-04 03:43 | 31.15070 | 121.79676 | 0 ft | 0 kts | 72° |
| 2026-05-04 03:59 | 31.15067 | 121.79668 | 28 ft | 4 kts | 72° |
| 2026-05-04 03:59 | 31.15059 | 121.79638 | 26 ft | 4 kts | 72° |
| 2026-05-04 04:00 | 31.15052 | 121.79614 | 26 ft | 4 kts | 74° |
| 2026-05-04 04:00 | 31.15049 | 121.79587 | 25 ft | 4 kts | 101° |
| 2026-05-04 04:00 | 31.15056 | 121.79564 | 25 ft | 4 kts | 136° |
| 2026-05-04 04:00 | 31.15074 | 121.79551 | 26 ft | 4 kts | 162° |
| 2026-05-04 04:01 | 31.15094 | 121.79544 | 26 ft | 0 kts | 162° |
| 2026-05-04 04:05 | 31.15087 | 121.79546 | 28 ft | 3 kts | 162° |
| 2026-05-04 04:05 | 31.15042 | 121.79563 | 28 ft | 10 kts | 162° |
| 2026-05-04 04:05 | 31.14955 | 121.79566 | 28 ft | 16 kts | 216° |
| 2026-05-04 04:06 | 31.14896 | 121.79440 | 28 ft | 19 kts | 232° |
| 2026-05-04 04:06 | 31.14776 | 121.79437 | 28 ft | 19 kts | 163° |
| 2026-05-04 04:06 | 31.14651 | 121.79483 | 28 ft | 19 kts | 162° |
| 2026-05-04 04:06 | 31.14528 | 121.79529 | 27 ft | 19 kts | 162° |
| 2026-05-04 04:07 | 31.14405 | 121.79575 | 28 ft | 19 kts | 161° |
| 2026-05-04 04:07 | 31.14284 | 121.79622 | 27 ft | 19 kts | 162° |
| 2026-05-04 04:07 | 31.14162 | 121.79669 | 28 ft | 19 kts | 162° |
| 2026-05-04 04:07 | 31.14039 | 121.79715 | 28 ft | 19 kts | 162° |
| 2026-05-04 04:08 | 31.13996 | 121.79732 | 28 ft | 0 kts | 162° |
| 2026-05-04 04:16 | 31.13937 | 121.79754 | 28 ft | 18 kts | 162° |
| 2026-05-04 04:16 | 31.13787 | 121.79811 | 28 ft | 24 kts | 162° |
| 2026-05-04 04:16 | 31.13627 | 121.79872 | 27 ft | 24 kts | 162° |
| 2026-05-04 04:17 | 31.13467 | 121.79932 | 27 ft | 24 kts | 162° |
| 2026-05-04 04:17 | 31.13306 | 121.79993 | 27 ft | 24 kts | 162° |
| 2026-05-04 04:17 | 31.13147 | 121.80054 | 27 ft | 24 kts | 162° |
| 2026-05-04 04:17 | 31.12986 | 121.80114 | 27 ft | 24 kts | 163° |
| 2026-05-04 04:18 | 31.12837 | 121.80163 | 27 ft | 20 kts | 175° |
| 2026-05-04 04:18 | 31.12753 | 121.80047 | 28 ft | 20 kts | 250° |
| 2026-05-04 04:18 | 31.12734 | 121.79906 | 27 ft | 17 kts | 292° |
| 2026-05-04 04:18 | 31.12856 | 121.79831 | 27 ft | 33 kts | 341° |
| 2026-05-04 04:19 | 31.13310 | 121.79660 | 27 ft | 103 kts | 342° |
| 2026-05-04 04:19 | 31.14199 | 121.79325 | 28 ft | 164 kts | 342° |
| 2026-05-04 04:19 | 31.15430 | 121.78856 | 112 ft | 200 kts | 342° |
| 2026-05-04 04:19 | 31.16771 | 121.78389 | 597 ft | 203 kts | 341° |
| 2026-05-04 04:20 | 31.18108 | 121.77892 | 1345 ft | 197 kts | 338° |
| 2026-05-04 04:20 | 31.19407 | 121.77344 | 1875 ft | 206 kts | 337° |
| 2026-05-04 04:20 | 31.20806 | 121.76758 | 2108 ft | 221 kts | 338° |
| 2026-05-04 04:20 | 31.22301 | 121.76065 | 2287 ft | 240 kts | 334° |
| 2026-05-04 04:21 | 31.23915 | 121.75360 | 2636 ft | 253 kts | 341° |
| 2026-05-04 04:21 | 31.25616 | 121.74762 | 3318 ft | 259 kts | 340° |
| 2026-05-04 04:21 | 31.27322 | 121.74066 | 4062 ft | 259 kts | 338° |
| 2026-05-04 04:21 | 31.29011 | 121.73366 | 4824 ft | 257 kts | 338° |
| 2026-05-04 04:22 | 31.30696 | 121.72676 | 5537 ft | 256 kts | 339° |
| 2026-05-04 04:22 | 31.32356 | 121.72000 | 6222 ft | 256 kts | 339° |
| 2026-05-04 04:22 | 31.34040 | 121.71318 | 6868 ft | 256 kts | 339° |
| 2026-05-04 04:22 | 31.35746 | 121.70640 | 7420 ft | 261 kts | 339° |
| 2026-05-04 04:23 | 31.37488 | 121.69976 | 7921 ft | 266 kts | 340° |
| 2026-05-04 04:23 | 31.39263 | 121.69302 | 8484 ft | 270 kts | 340° |
| 2026-05-04 04:23 | 31.41057 | 121.68620 | 9056 ft | 273 kts | 340° |
| 2026-05-04 04:23 | 31.42874 | 121.67926 | 9611 ft | 277 kts | 340° |
| 2026-05-04 04:24 | 31.44719 | 121.67216 | 10136 ft | 281 kts | 340° |
| 2026-05-04 04:24 | 31.46626 | 121.66490 | 10347 ft | 297 kts | 340° |
| 2026-05-04 04:24 | 31.48655 | 121.65720 | 10511 ft | 316 kts | 340° |
| 2026-05-04 04:24 | 31.50808 | 121.64903 | 10659 ft | 335 kts | 340° |
| 2026-05-04 04:25 | 31.53086 | 121.64036 | 10842 ft | 352 kts | 340° |
| 2026-05-04 04:25 | 31.55354 | 121.62909 | 11020 ft | 358 kts | 324° |
| 2026-05-04 04:25 | 31.57036 | 121.61052 | 11303 ft | 359 kts | 308° |
| 2026-05-04 04:25 | 31.58673 | 121.58802 | 11718 ft | 367 kts | 311° |
| 2026-05-04 04:26 | 31.60449 | 121.56646 | 12449 ft | 368 kts | 313° |
| 2026-05-04 04:26 | 31.62276 | 121.54524 | 13231 ft | 371 kts | 313° |
| 2026-05-04 04:26 | 31.64122 | 121.52389 | 13928 ft | 375 kts | 313° |
| 2026-05-04 04:26 | 31.65986 | 121.50220 | 14517 ft | 380 kts | 312° |
| 2026-05-04 04:27 | 31.67865 | 121.48017 | 15176 ft | 383 kts | 312° |
| 2026-05-04 04:27 | 31.69746 | 121.45802 | 15876 ft | 384 kts | 312° |
| 2026-05-04 04:27 | 31.71635 | 121.43566 | 16561 ft | 386 kts | 311° |
| 2026-05-04 04:27 | 31.73535 | 121.41313 | 17198 ft | 390 kts | 311° |
| 2026-05-04 04:28 | 31.75450 | 121.39038 | 17831 ft | 393 kts | 311° |
| 2026-05-04 04:28 | 31.77355 | 121.36774 | 18438 ft | 396 kts | 311° |
| 2026-05-04 04:28 | 31.79299 | 121.34460 | 19002 ft | 399 kts | 310° |
| 2026-05-04 04:28 | 31.81251 | 121.32137 | 19550 ft | 401 kts | 310° |
| 2026-05-04 04:29 | 31.83218 | 121.29793 | 20099 ft | 404 kts | 310° |
| 2026-05-04 04:29 | 31.85198 | 121.27433 | 20633 ft | 407 kts | 310° |
| 2026-05-04 04:29 | 31.87189 | 121.25057 | 21162 ft | 409 kts | 309° |
| 2026-05-04 04:29 | 31.89189 | 121.22669 | 21680 ft | 412 kts | 309° |
| 2026-05-04 04:30 | 31.91207 | 121.20257 | 22185 ft | 414 kts | 309° |
| 2026-05-04 04:30 | 31.93238 | 121.17829 | 22673 ft | 417 kts | 309° |
| 2026-05-04 04:30 | 31.95279 | 121.15388 | 23162 ft | 420 kts | 308° |
| 2026-05-04 04:30 | 31.97338 | 121.12923 | 23623 ft | 423 kts | 308° |
| 2026-05-04 04:31 | 31.99409 | 121.10443 | 24024 ft | 426 kts | 308° |
| 2026-05-04 04:31 | 32.01489 | 121.07949 | 24424 ft | 428 kts | 308° |
| 2026-05-04 04:31 | 32.03583 | 121.05438 | 24806 ft | 430 kts | 308° |
| 2026-05-04 04:31 | 32.05687 | 121.02913 | 25188 ft | 433 kts | 308° |
| 2026-05-04 04:32 | 32.07802 | 121.00373 | 25570 ft | 435 kts | 307° |
| 2026-05-04 04:32 | 32.09751 | 120.97702 | 25800 ft | 427 kts | 296° |
| 2026-05-04 04:32 | 32.10928 | 120.94563 | 26002 ft | 415 kts | 279° |
| 2026-05-04 04:32 | 32.11552 | 120.91264 | 26187 ft | 415 kts | 281° |
| 2026-05-04 04:33 | 32.12428 | 120.87976 | 26415 ft | 423 kts | 284° |
| 2026-05-04 04:33 | 32.13432 | 120.84711 | 26855 ft | 423 kts | 285° |
| 2026-05-04 04:33 | 32.14421 | 120.81445 | 27326 ft | 422 kts | 284° |
| 2026-05-04 04:33 | 32.15359 | 120.78170 | 27722 ft | 423 kts | 283° |
| 2026-05-04 04:34 | 32.16278 | 120.74863 | 28074 ft | 424 kts | 282° |
| 2026-05-04 04:34 | 32.17030 | 120.71514 | 28374 ft | 419 kts | 274° |
| 2026-05-04 04:34 | 32.17250 | 120.69260 | 28524 ft | 419 kts | 270° |
| 2026-05-04 04:34 | 32.17440 | 120.65824 | 28829 ft | 420 kts | 270° |
| 2026-05-04 04:35 | 32.17659 | 120.62380 | 29171 ft | 421 kts | 271° |
| 2026-05-04 04:35 | 32.17997 | 120.57815 | 29602 ft | 422 kts | 271° |
| 2026-05-04 04:35 | 32.18182 | 120.55486 | 29790 ft | 423 kts | 271° |
| 2026-05-04 04:35 | 32.18559 | 120.50890 | 30037 ft | 427 kts | 271° |
| 2026-05-04 04:36 | 32.19045 | 120.45022 | 30120 ft | 430 kts | 271° |
| 2026-05-04 04:36 | 32.19623 | 120.37984 | 30113 ft | 430 kts | 271° |
| 2026-05-04 04:37 | 32.20761 | 120.23975 | 30117 ft | 428 kts | 271° |
| 2026-05-04 04:38 | 32.21331 | 120.17038 | 30120 ft | 427 kts | 271° |
| 2026-05-04 04:38 | 32.21900 | 120.10056 | 30120 ft | 427 kts | 271° |
| 2026-05-04 04:39 | 32.22465 | 120.03067 | 30119 ft | 428 kts | 271° |
| 2026-05-04 04:39 | 32.23026 | 119.96072 | 30118 ft | 428 kts | 271° |
| 2026-05-04 04:40 | 32.23586 | 119.89052 | 30500 ft | 428 kts | 271° |
| 2026-05-04 04:40 | 32.23864 | 119.85565 | 30865 ft | 425 kts | 271° |
| 2026-05-04 04:40 | 32.24168 | 119.82122 | 31195 ft | 420 kts | 274° |
| 2026-05-04 04:41 | 32.25024 | 119.78766 | 31230 ft | 437 kts | 289° |
| 2026-05-04 04:41 | 32.26592 | 119.75646 | 31462 ft | 446 kts | 297° |
| 2026-05-04 04:41 | 32.28569 | 119.72805 | 31987 ft | 450 kts | 305° |
| 2026-05-04 04:41 | 32.31011 | 119.70383 | 32086 ft | 466 kts | 314° |
| 2026-05-04 04:42 | 32.36379 | 119.66066 | 32115 ft | 465 kts | 315° |
| 2026-05-04 04:42 | 32.41642 | 119.61684 | 32119 ft | 461 kts | 314° |
| 2026-05-04 04:43 | 32.46827 | 119.57241 | 32116 ft | 459 kts | 313° |
| 2026-05-04 04:43 | 32.51983 | 119.52795 | 32117 ft | 458 kts | 313° |
| 2026-05-04 04:44 | 32.57135 | 119.48337 | 32124 ft | 458 kts | 313° |
| 2026-05-04 04:44 | 32.62287 | 119.43874 | 32119 ft | 459 kts | 313° |
| 2026-05-04 04:45 | 32.67441 | 119.39406 | 32123 ft | 459 kts | 313° |
| 2026-05-04 04:47 | 32.85469 | 119.23727 | 32115 ft | 458 kts | 313° |
| 2026-05-04 04:47 | 32.90602 | 119.19247 | 32119 ft | 458 kts | 313° |
| 2026-05-04 04:48 | 32.95739 | 119.14762 | 32115 ft | 458 kts | 313° |
| 2026-05-04 04:49 | 33.08594 | 119.03650 | 32119 ft | 457 kts | 313° |
| 2026-05-04 04:49 | 33.13737 | 118.99186 | 32115 ft | 457 kts | 313° |
| 2026-05-04 04:50 | 33.18602 | 118.94958 | 32115 ft | 457 kts | 313° |
| 2026-05-04 04:50 | 33.23734 | 118.90499 | 32113 ft | 457 kts | 313° |
| 2026-05-04 04:51 | 33.28872 | 118.86037 | 32113 ft | 456 kts | 313° |
| 2026-05-04 04:51 | 33.34014 | 118.81583 | 32100 ft | 456 kts | 313° |
| 2026-05-04 04:52 | 33.39160 | 118.77137 | 32109 ft | 456 kts | 313° |
| 2026-05-04 04:52 | 33.44292 | 118.72692 | 32107 ft | 456 kts | 313° |
| 2026-05-04 04:53 | 33.49427 | 118.68240 | 32111 ft | 455 kts | 313° |
| 2026-05-04 04:53 | 33.54564 | 118.63795 | 32107 ft | 455 kts | 313° |
| 2026-05-04 04:54 | 33.59692 | 118.59351 | 32109 ft | 455 kts | 313° |
| 2026-05-04 04:54 | 33.64818 | 118.54900 | 32105 ft | 454 kts | 313° |
| 2026-05-04 04:55 | 33.69935 | 118.50449 | 32105 ft | 454 kts | 313° |
| 2026-05-04 04:55 | 33.75040 | 118.46002 | 32106 ft | 453 kts | 313° |
| 2026-05-04 04:56 | 33.80132 | 118.41559 | 32100 ft | 452 kts | 313° |
| 2026-05-04 04:56 | 33.85214 | 118.37117 | 32099 ft | 451 kts | 313° |
| 2026-05-04 04:57 | 33.90287 | 118.32677 | 32096 ft | 450 kts | 313° |
| 2026-05-04 04:57 | 33.95339 | 118.28249 | 32101 ft | 449 kts | 312° |
| 2026-05-04 04:58 | 34.00358 | 118.23857 | 32100 ft | 448 kts | 313° |
| 2026-05-04 04:58 | 34.05398 | 118.19464 | 32103 ft | 447 kts | 312° |
| 2026-05-04 04:59 | 34.10430 | 118.15066 | 32100 ft | 446 kts | 312° |
| 2026-05-04 04:59 | 34.15440 | 118.10672 | 32094 ft | 444 kts | 312° |
| 2026-05-04 05:00 | 34.20432 | 118.06282 | 32099 ft | 444 kts | 319° |
| 2026-05-04 05:00 | 34.25532 | 118.01916 | 32092 ft | 456 kts | 326° |
| 2026-05-04 05:01 | 34.28352 | 118.00089 | 32104 ft | 463 kts | 331° |
| 2026-05-04 05:01 | 34.34449 | 117.97326 | 32093 ft | 473 kts | 340° |
| 2026-05-04 05:02 | 34.40783 | 117.95147 | 32085 ft | 473 kts | 340° |
| 2026-05-04 05:02 | 34.47094 | 117.92926 | 32086 ft | 472 kts | 340° |
| 2026-05-04 05:03 | 34.53384 | 117.90682 | 32086 ft | 470 kts | 340° |
| 2026-05-04 05:04 | 34.65882 | 117.86203 | 32086 ft | 466 kts | 340° |
| 2026-05-04 05:04 | 34.72101 | 117.83970 | 32080 ft | 465 kts | 340° |
| 2026-05-04 05:06 | 34.96914 | 117.75018 | 32088 ft | 466 kts | 340° |
| 2026-05-04 05:07 | 35.03120 | 117.72753 | 32084 ft | 466 kts | 341° |
| 2026-05-04 05:07 | 35.09331 | 117.70486 | 32084 ft | 466 kts | 341° |
| 2026-05-04 05:09 | 35.34138 | 117.61362 | 32302 ft | 466 kts | 332° |
| 2026-05-04 05:09 | 35.37267 | 117.60209 | 32192 ft | 472 kts | 329° |
| 2026-05-04 05:10 | 35.43588 | 117.57815 | 32104 ft | 478 kts | 330° |
| 2026-05-04 05:10 | 35.49970 | 117.55471 | 32077 ft | 478 kts | 331° |
| 2026-05-04 05:11 | 35.56346 | 117.53131 | 32076 ft | 478 kts | 332° |
| 2026-05-04 05:11 | 35.62651 | 117.50799 | 32072 ft | 476 kts | 332° |
| 2026-05-04 05:12 | 35.68983 | 117.48443 | 32070 ft | 475 kts | 332° |
| 2026-05-04 05:12 | 35.75301 | 117.46086 | 32058 ft | 474 kts | 333° |
| 2026-05-04 05:13 | 35.81605 | 117.43732 | 32065 ft | 473 kts | 333° |
| 2026-05-04 05:13 | 35.87902 | 117.41375 | 32055 ft | 473 kts | 333° |
| 2026-05-04 05:14 | 35.94184 | 117.39021 | 32070 ft | 472 kts | 333° |
| 2026-05-04 05:14 | 36.00477 | 117.36660 | 32067 ft | 472 kts | 334° |
| 2026-05-04 05:15 | 36.06771 | 117.34323 | 32069 ft | 473 kts | 334° |
| 2026-05-04 05:15 | 36.13076 | 117.31996 | 32066 ft | 472 kts | 334° |
| 2026-05-04 05:16 | 36.19369 | 117.29663 | 32062 ft | 472 kts | 335° |
| 2026-05-04 05:16 | 36.25653 | 117.27325 | 32056 ft | 471 kts | 335° |
| 2026-05-04 05:17 | 36.31920 | 117.24990 | 32064 ft | 470 kts | 335° |
| 2026-05-04 05:17 | 36.38188 | 117.22651 | 32058 ft | 470 kts | 335° |
| 2026-05-04 05:18 | 36.44367 | 117.20122 | 32063 ft | 463 kts | 330° |
| 2026-05-04 05:18 | 36.50288 | 117.17004 | 32063 ft | 461 kts | 329° |
| 2026-05-04 05:19 | 36.56184 | 117.13857 | 32054 ft | 461 kts | 330° |
| 2026-05-04 05:19 | 36.62092 | 117.10749 | 32043 ft | 461 kts | 330° |
| 2026-05-04 05:20 | 36.67978 | 117.07675 | 32042 ft | 462 kts | 331° |
| 2026-05-04 05:20 | 36.72940 | 117.05083 | 32033 ft | 462 kts | 331° |
| 2026-05-04 05:21 | 36.79822 | 117.01483 | 32040 ft | 462 kts | 331° |
| 2026-05-04 05:21 | 36.85745 | 116.98377 | 32036 ft | 461 kts | 332° |
| 2026-05-04 05:22 | 36.91661 | 116.95268 | 32036 ft | 461 kts | 332° |
| 2026-05-04 05:22 | 36.96568 | 116.92685 | 32030 ft | 460 kts | 332° |
| 2026-05-04 05:23 | 37.02471 | 116.89574 | 32037 ft | 460 kts | 332° |
| 2026-05-04 05:23 | 37.08360 | 116.86464 | 32027 ft | 459 kts | 332° |
| 2026-05-04 05:24 | 37.14248 | 116.83350 | 32030 ft | 459 kts | 332° |
| 2026-05-04 05:24 | 37.20130 | 116.80235 | 32019 ft | 459 kts | 332° |
| 2026-05-04 05:25 | 37.26168 | 116.77573 | 32025 ft | 462 kts | 339° |
| 2026-05-04 05:25 | 37.32352 | 116.75321 | 32022 ft | 462 kts | 339° |
| 2026-05-04 05:26 | 37.38529 | 116.73044 | 32031 ft | 463 kts | 339° |
| 2026-05-04 05:26 | 37.44696 | 116.70723 | 32019 ft | 463 kts | 339° |
| 2026-05-04 05:28 | 37.69382 | 116.61334 | 32013 ft | 463 kts | 339° |
| 2026-05-04 05:29 | 37.75542 | 116.58982 | 32014 ft | 462 kts | 339° |
| 2026-05-04 05:29 | 37.78610 | 116.57808 | 31640 ft | 461 kts | 340° |
| 2026-05-04 05:29 | 37.81660 | 116.56640 | 31806 ft | 455 kts | 341° |
| 2026-05-04 05:31 | 37.98999 | 116.48899 | 32012 ft | 448 kts | 329° |
| 2026-05-04 05:31 | 38.01649 | 116.46824 | 32010 ft | 448 kts | 323° |
| 2026-05-04 05:32 | 38.06673 | 116.42127 | 32007 ft | 450 kts | 323° |
| 2026-05-04 05:33 | 38.14268 | 116.35172 | 32000 ft | 451 kts | 323° |
| 2026-05-04 05:33 | 38.19350 | 116.30469 | 31995 ft | 452 kts | 323° |
| 2026-05-04 05:34 | 38.24691 | 116.26408 | 31992 ft | 450 kts | 343° |
| 2026-05-04 05:34 | 38.27792 | 116.25761 | 32005 ft | 455 kts | 355° |
| 2026-05-04 05:34 | 38.30964 | 116.25965 | 31991 ft | 461 kts | 7° |
| 2026-05-04 05:35 | 38.37193 | 116.28120 | 31989 ft | 466 kts | 12° |
| 2026-05-04 05:35 | 38.43434 | 116.30393 | 31996 ft | 468 kts | 12° |
| 2026-05-04 05:36 | 38.49717 | 116.32588 | 31991 ft | 469 kts | 12° |
| 2026-05-04 05:36 | 38.56016 | 116.34760 | 31985 ft | 468 kts | 12° |
| 2026-05-04 05:37 | 38.62297 | 116.36931 | 31983 ft | 467 kts | 12° |
| 2026-05-04 05:37 | 38.68546 | 116.39107 | 31980 ft | 465 kts | 12° |
| 2026-05-04 05:38 | 38.77887 | 116.42408 | 31979 ft | 463 kts | 12° |
| 2026-05-04 05:38 | 38.84091 | 116.44604 | 31981 ft | 463 kts | 12° |
| 2026-05-04 05:39 | 38.93399 | 116.47902 | 31975 ft | 463 kts | 12° |
| 2026-05-04 05:40 | 39.02712 | 116.51210 | 31970 ft | 463 kts | 13° |
| 2026-05-04 05:40 | 39.08928 | 116.53424 | 31968 ft | 463 kts | 13° |
| 2026-05-04 05:41 | 39.15142 | 116.55642 | 31963 ft | 463 kts | 13° |
| 2026-05-04 05:41 | 39.21333 | 116.57984 | 31953 ft | 465 kts | 17° |
| 2026-05-04 05:42 | 39.27410 | 116.60825 | 31955 ft | 465 kts | 17° |
| 2026-05-04 05:42 | 39.33484 | 116.63673 | 31952 ft | 464 kts | 17° |
| 2026-05-04 05:43 | 39.39564 | 116.66508 | 31948 ft | 464 kts | 17° |
| 2026-05-04 05:45 | 39.63819 | 116.77839 | 31957 ft | 464 kts | 17° |
| 2026-05-04 05:47 | 39.88557 | 116.83776 | 31950 ft | 456 kts | 349° |
| 2026-05-04 05:47 | 39.94829 | 116.82449 | 31925 ft | 457 kts | 350° |
| 2026-05-04 05:48 | 40.01122 | 116.81183 | 31925 ft | 458 kts | 350° |
| 2026-05-04 05:48 | 40.07429 | 116.79927 | 31918 ft | 458 kts | 350° |
| 2026-05-04 05:49 | 40.13734 | 116.78667 | 31916 ft | 459 kts | 350° |
| 2026-05-04 05:49 | 40.20049 | 116.77403 | 31929 ft | 458 kts | 350° |
| 2026-05-04 05:51 | 40.44803 | 116.70054 | 31928 ft | 456 kts | 342° |
| 2026-05-04 05:52 | 40.50865 | 116.67609 | 31934 ft | 456 kts | 342° |
| 2026-05-04 05:52 | 40.56942 | 116.65161 | 31927 ft | 457 kts | 342° |
| 2026-05-04 05:54 | 40.81420 | 116.56244 | 31900 ft | 459 kts | 355° |
| 2026-05-04 05:55 | 40.87795 | 116.55754 | 31906 ft | 459 kts | 355° |
| 2026-05-04 05:55 | 40.94180 | 116.55164 | 31883 ft | 459 kts | 355° |
| 2026-05-04 05:56 | 41.00553 | 116.54552 | 31898 ft | 459 kts | 355° |
| 2026-05-04 05:56 | 41.06923 | 116.53945 | 31894 ft | 459 kts | 355° |
| 2026-05-04 05:57 | 41.13300 | 116.53340 | 31874 ft | 459 kts | 355° |
| 2026-05-04 05:57 | 41.19672 | 116.52709 | 31868 ft | 459 kts | 352° |
| 2026-05-04 05:58 | 41.25815 | 116.50620 | 31877 ft | 457 kts | 338° |
| 2026-05-04 05:58 | 41.31437 | 116.46719 | 31867 ft | 456 kts | 329° |
| 2026-05-04 05:59 | 41.36872 | 116.42344 | 31868 ft | 457 kts | 329° |
| 2026-05-04 05:59 | 41.42328 | 116.38005 | 31852 ft | 457 kts | 329° |
| 2026-05-04 06:00 | 41.47796 | 116.33675 | 31860 ft | 457 kts | 329° |
| 2026-05-04 06:00 | 41.53261 | 116.29340 | 31838 ft | 457 kts | 329° |
| 2026-05-04 06:01 | 41.58716 | 116.25003 | 31829 ft | 456 kts | 329° |
| 2026-05-04 06:03 | 41.80497 | 116.07597 | 31806 ft | 455 kts | 329° |
| 2026-05-04 06:05 | 42.04503 | 115.87276 | 31788 ft | 453 kts | 325° |
| 2026-05-04 06:06 | 42.09690 | 115.82453 | 31780 ft | 453 kts | 325° |
| 2026-05-04 06:06 | 42.14876 | 115.77639 | 31766 ft | 453 kts | 325° |
| 2026-05-04 06:07 | 42.20069 | 115.72810 | 31765 ft | 453 kts | 325° |
| 2026-05-04 06:07 | 42.25260 | 115.67974 | 31749 ft | 453 kts | 325° |
| 2026-05-04 06:08 | 42.30445 | 115.63133 | 31753 ft | 453 kts | 325° |
| 2026-05-04 06:08 | 42.35627 | 115.58285 | 31747 ft | 453 kts | 325° |
| 2026-05-04 06:09 | 42.39926 | 115.54253 | 31744 ft | 453 kts | 325° |
| 2026-05-04 06:11 | 42.60606 | 115.34767 | 31718 ft | 452 kts | 324° |
| 2026-05-04 06:13 | 42.81241 | 115.15161 | 31698 ft | 452 kts | 324° |
| 2026-05-04 06:14 | 42.99251 | 114.97914 | 31671 ft | 452 kts | 324° |
| 2026-05-04 06:15 | 43.04388 | 114.92972 | 31668 ft | 451 kts | 324° |
| 2026-05-04 06:15 | 43.09522 | 114.88024 | 31659 ft | 451 kts | 324° |
| 2026-05-04 06:16 | 43.14668 | 114.83113 | 31654 ft | 451 kts | 324° |
| 2026-05-04 06:16 | 43.19826 | 114.78309 | 31655 ft | 451 kts | 324° |
| 2026-05-04 06:17 | 43.25015 | 114.73472 | 31649 ft | 451 kts | 324° |
| 2026-05-04 06:17 | 43.30195 | 114.68618 | 31650 ft | 451 kts | 324° |
| 2026-05-04 06:18 | 43.35367 | 114.63752 | 31644 ft | 450 kts | 324° |
| 2026-05-04 06:20 | 43.56009 | 114.44221 | 31634 ft | 450 kts | 324° |
| 2026-05-04 06:21 | 43.68886 | 114.31953 | 31621 ft | 450 kts | 324° |
| 2026-05-04 06:22 | 43.74035 | 114.27030 | 31624 ft | 450 kts | 323° |
| 2026-05-04 06:25 | 44.09900 | 113.92441 | 31608 ft | 449 kts | 323° |
| 2026-05-04 06:26 | 44.15015 | 113.87467 | 31608 ft | 448 kts | 323° |
| 2026-05-04 06:26 | 44.20121 | 113.82490 | 31605 ft | 448 kts | 323° |
| 2026-05-04 06:27 | 44.32859 | 113.70026 | 31603 ft | 447 kts | 323° |
| 2026-05-04 06:28 | 44.37941 | 113.65034 | 31602 ft | 447 kts | 323° |
| 2026-05-04 06:28 | 44.43026 | 113.60028 | 31604 ft | 447 kts | 323° |
| 2026-05-04 06:29 | 44.48110 | 113.55013 | 31607 ft | 447 kts | 323° |
| 2026-05-04 06:29 | 44.53157 | 113.50023 | 31599 ft | 447 kts | 323° |
| 2026-05-04 06:30 | 44.58231 | 113.44996 | 31599 ft | 447 kts | 323° |
| 2026-05-04 06:30 | 44.63307 | 113.39956 | 31597 ft | 447 kts | 323° |
| 2026-05-04 06:31 | 44.68372 | 113.34915 | 31592 ft | 446 kts | 323° |
| 2026-05-04 06:31 | 44.73437 | 113.29863 | 31590 ft | 446 kts | 323° |
| 2026-05-04 06:33 | 44.93298 | 113.08940 | 31587 ft | 445 kts | 321° |
| 2026-05-04 06:34 | 44.98218 | 113.03627 | 31578 ft | 445 kts | 321° |
| 2026-05-04 06:34 | 45.03140 | 112.98314 | 31575 ft | 445 kts | 321° |
| 2026-05-04 06:36 | 45.22765 | 112.77016 | 31563 ft | 443 kts | 321° |
| 2026-05-04 06:37 | 45.27650 | 112.71684 | 31559 ft | 443 kts | 321° |
| 2026-05-04 06:37 | 45.32500 | 112.66380 | 31557 ft | 443 kts | 321° |
| 2026-05-04 06:38 | 45.37375 | 112.61034 | 31538 ft | 442 kts | 321° |
| 2026-05-04 06:40 | 45.56797 | 112.39623 | 31539 ft | 440 kts | 321° |
| 2026-05-04 06:40 | 45.61636 | 112.34258 | 31534 ft | 440 kts | 321° |
| 2026-05-04 06:41 | 45.66468 | 112.28889 | 31538 ft | 440 kts | 320° |
| 2026-05-04 06:41 | 45.71288 | 112.23522 | 31537 ft | 439 kts | 320° |
| 2026-05-04 06:42 | 45.76109 | 112.18140 | 31530 ft | 439 kts | 320° |
| 2026-05-04 06:44 | 45.95315 | 111.96582 | 31524 ft | 438 kts | 320° |
| 2026-05-04 06:44 | 46.00110 | 111.91171 | 31521 ft | 437 kts | 320° |
| 2026-05-04 06:45 | 46.04892 | 111.85761 | 31519 ft | 437 kts | 320° |
| 2026-05-04 06:45 | 46.09663 | 111.80351 | 31509 ft | 436 kts | 320° |
| 2026-05-04 06:46 | 46.14422 | 111.74942 | 31513 ft | 435 kts | 320° |
| 2026-05-04 06:46 | 46.19171 | 111.69532 | 31513 ft | 434 kts | 320° |
| 2026-05-04 06:48 | 46.38078 | 111.47874 | 31503 ft | 433 kts | 320° |
| 2026-05-04 06:50 | 46.56846 | 111.26179 | 31494 ft | 431 kts | 320° |
| 2026-05-04 06:51 | 46.61526 | 111.20738 | 31496 ft | 430 kts | 320° |
| 2026-05-04 06:51 | 46.66185 | 111.15310 | 31493 ft | 429 kts | 320° |
| 2026-05-04 06:52 | 46.70833 | 111.09881 | 31485 ft | 428 kts | 320° |
| 2026-05-04 06:52 | 46.75472 | 111.04452 | 31484 ft | 427 kts | 320° |
| 2026-05-04 06:53 | 46.80097 | 110.99026 | 31485 ft | 427 kts | 319° |
| 2026-05-04 06:53 | 46.84721 | 110.93588 | 31482 ft | 427 kts | 319° |
| 2026-05-04 06:54 | 46.89342 | 110.88141 | 31483 ft | 427 kts | 319° |
| 2026-05-04 06:54 | 46.93959 | 110.82688 | 31479 ft | 427 kts | 319° |
| 2026-05-04 06:55 | 46.98575 | 110.77224 | 31477 ft | 426 kts | 319° |
| 2026-05-04 06:55 | 47.03184 | 110.71754 | 31467 ft | 426 kts | 319° |
| 2026-05-04 06:57 | 47.21532 | 110.49857 | 31456 ft | 423 kts | 319° |
| 2026-05-04 06:58 | 47.25322 | 110.45309 | 31455 ft | 422 kts | 319° |
| 2026-05-04 06:58 | 47.29865 | 110.39844 | 31456 ft | 421 kts | 319° |
| 2026-05-04 06:59 | 47.34392 | 110.34388 | 31451 ft | 420 kts | 318° |
| 2026-05-04 06:59 | 47.38911 | 110.28927 | 31457 ft | 419 kts | 318° |
| 2026-05-04 07:01 | 47.56944 | 110.07016 | 31459 ft | 419 kts | 318° |
| 2026-05-04 07:02 | 47.61446 | 110.01514 | 31460 ft | 419 kts | 317° |
| 2026-05-04 07:02 | 47.65912 | 109.96044 | 31460 ft | 419 kts | 317° |
| 2026-05-04 07:03 | 47.70402 | 109.90531 | 31469 ft | 418 kts | 317° |
| 2026-05-04 07:03 | 47.74874 | 109.85026 | 31472 ft | 418 kts | 317° |
| 2026-05-04 07:04 | 47.79348 | 109.79508 | 31472 ft | 418 kts | 317° |
| 2026-05-04 07:04 | 47.83809 | 109.73993 | 31475 ft | 417 kts | 317° |
| 2026-05-04 07:05 | 47.88263 | 109.68475 | 31487 ft | 416 kts | 317° |
| 2026-05-04 07:05 | 47.92707 | 109.62955 | 31499 ft | 416 kts | 317° |
| 2026-05-04 07:06 | 47.99376 | 109.54648 | 31504 ft | 417 kts | 316° |
| 2026-05-04 07:07 | 48.03795 | 109.49127 | 31516 ft | 417 kts | 316° |
| 2026-05-04 07:09 | 48.21552 | 109.26811 | 31558 ft | 417 kts | 316° |
| 2026-05-04 07:09 | 48.25989 | 109.21201 | 31564 ft | 417 kts | 316° |
| 2026-05-04 07:10 | 48.30411 | 109.15599 | 31582 ft | 416 kts | 316° |
| 2026-05-04 07:12 | 48.48016 | 108.93159 | 31608 ft | 413 kts | 315° |
| 2026-05-04 07:12 | 48.52393 | 108.87548 | 31622 ft | 413 kts | 315° |
| 2026-05-04 07:13 | 48.56764 | 108.81929 | 31627 ft | 412 kts | 315° |
| 2026-05-04 07:13 | 48.61131 | 108.76306 | 31627 ft | 412 kts | 315° |
| 2026-05-04 07:14 | 48.72019 | 108.62220 | 31647 ft | 412 kts | 315° |
| 2026-05-04 07:15 | 48.76373 | 108.56566 | 31654 ft | 412 kts | 315° |
| 2026-05-04 07:15 | 48.80712 | 108.50918 | 31659 ft | 411 kts | 315° |
| 2026-05-04 07:16 | 48.85045 | 108.45263 | 31667 ft | 410 kts | 314° |
| 2026-05-04 07:16 | 48.89338 | 108.39649 | 31671 ft | 409 kts | 314° |
| 2026-05-04 07:17 | 48.93645 | 108.34002 | 31674 ft | 408 kts | 314° |
| 2026-05-04 07:17 | 48.97933 | 108.28365 | 31671 ft | 407 kts | 314° |
| 2026-05-04 07:18 | 49.02216 | 108.22721 | 31670 ft | 407 kts | 314° |
| 2026-05-04 07:18 | 49.06490 | 108.17077 | 31678 ft | 407 kts | 314° |
| 2026-05-04 07:19 | 49.10763 | 108.11422 | 31689 ft | 406 kts | 314° |
| 2026-05-04 07:19 | 49.15030 | 108.05761 | 31677 ft | 406 kts | 314° |
| 2026-05-04 07:20 | 49.19290 | 108.00096 | 31705 ft | 406 kts | 314° |
| 2026-05-04 07:20 | 49.23552 | 107.94414 | 31708 ft | 407 kts | 313° |
| 2026-05-04 07:22 | 49.40626 | 107.71517 | 31722 ft | 408 kts | 313° |
| 2026-05-04 07:23 | 49.44892 | 107.65761 | 31720 ft | 408 kts | 313° |
| 2026-05-04 07:23 | 49.49147 | 107.60008 | 31726 ft | 407 kts | 313° |
| 2026-05-04 07:24 | 49.53401 | 107.54240 | 31733 ft | 408 kts | 313° |
| 2026-05-04 07:24 | 49.57649 | 107.48465 | 31738 ft | 407 kts | 313° |
| 2026-05-04 07:26 | 49.74572 | 107.25330 | 31762 ft | 407 kts | 312° |
| 2026-05-04 07:27 | 49.78829 | 107.19475 | 31767 ft | 407 kts | 312° |
| 2026-05-04 07:27 | 49.83048 | 107.13659 | 31768 ft | 406 kts | 312° |
| 2026-05-04 07:28 | 49.87236 | 107.07869 | 31771 ft | 406 kts | 312° |
| 2026-05-04 07:28 | 49.91443 | 107.02039 | 31781 ft | 405 kts | 312° |
| 2026-05-04 07:29 | 49.95643 | 106.96204 | 31778 ft | 405 kts | 312° |
| 2026-05-04 07:29 | 49.99834 | 106.90371 | 31778 ft | 404 kts | 312° |
| 2026-05-04 07:30 | 50.04017 | 106.84531 | 31787 ft | 404 kts | 311° |
| 2026-05-04 07:30 | 50.08195 | 106.78686 | 31782 ft | 404 kts | 311° |
| 2026-05-04 07:31 | 50.12374 | 106.72822 | 31783 ft | 404 kts | 311° |
| 2026-05-04 07:33 | 50.28976 | 106.49393 | 31777 ft | 402 kts | 311° |
| 2026-05-04 07:33 | 50.33114 | 106.43503 | 31785 ft | 401 kts | 311° |
| 2026-05-04 07:34 | 50.37222 | 106.37597 | 31794 ft | 401 kts | 311° |
| 2026-05-04 07:34 | 50.41324 | 106.31682 | 31793 ft | 401 kts | 311° |
| 2026-05-04 07:35 | 50.45425 | 106.25759 | 31795 ft | 400 kts | 311° |
| 2026-05-04 07:35 | 50.49516 | 106.19838 | 31793 ft | 400 kts | 311° |
| 2026-05-04 07:36 | 50.53604 | 106.13907 | 31794 ft | 399 kts | 311° |